Time;durP1;ratioP1;P1;durP2;ratioP2;P2;SDS_P1;SDS_P2;PMS_P1;PMS_P2;Temp;Humidity;BMP_temperature;BMP_pressure;BME280_temperature;BME280_humidity;BME280_pressure;Samples;Min_cycle;Max_cycle;Signal;HPM_P1;HPM_P2
2020/12/23 00:00:00;;;;;;;;;;;11.30;99.90;;;;;;5075172;28;20348;-89
2020/12/23 00:02:26;;;;;;;;;;;11.30;99.90;;;;;;5075138;28;19932;-87
2020/12/23 00:04:51;;;;;;;;;;;11.40;99.90;;;;;;5076399;28;19916;-87
2020/12/23 00:07:17;;;;;;;;;;;11.30;99.90;;;;;;5074878;28;19908;-87
2020/12/23 00:09:43;;;;;;;;;;;11.40;99.90;;;;;;5074791;28;20356;-88
2020/12/23 00:12:09;;;;;;;;;;;11.40;99.90;;;;;;5074828;28;19909;-88
2020/12/23 00:14:34;;;;;;;;;;;11.40;99.90;;;;;;5074794;28;19914;-88
2020/12/23 00:17:00;;;;;;;;;;;11.50;99.90;;;;;;5074655;28;19909;-87
2020/12/23 00:19:25;;;;;;;;;;;11.50;99.90;;;;;;5074710;28;19908;-87
2020/12/23 00:21:51;;;;;;;;;;;11.50;99.90;;;;;;5074708;28;19908;-88
2020/12/23 00:24:16;;;;;;;;;;;11.60;99.90;;;;;;5074620;28;19916;-87
2020/12/23 00:26:45;;;;;;;;;;;11.60;99.90;;;;;;5074339;28;19934;-87
2020/12/23 00:29:10;;;;;;;;;;;11.60;99.90;;;;;;5066518;28;20375;-87
2020/12/23 00:31:36;;;;;;;;;;;11.70;99.90;;;;;;5074041;28;19915;-88
2020/12/23 00:34:02;;;;;;;;;;;11.70;99.90;;;;;;5074457;28;20083;-88
2020/12/23 00:36:28;;;;;;;;;;;11.70;99.90;;;;;;5074108;28;19974;-87
2020/12/23 00:38:53;;;;;;;;;;;11.70;99.90;;;;;;5075573;28;20367;-87
2020/12/23 00:41:19;;;;;;;;;;;11.70;99.90;;;;;;5074115;28;19947;-87
2020/12/23 00:43:44;;;;;;;;;;;11.70;99.90;;;;;;5074291;28;20283;-87
2020/12/23 00:46:13;;;;;;;;;;;11.80;99.90;;;;;;5075307;28;19915;-88
2020/12/23 00:48:39;;;;;;;;;;;11.80;99.90;;;;;;5075381;28;19966;-87
2020/12/23 00:51:09;;;;;;;;;;;11.80;99.90;;;;;;5075393;28;20367;-87
2020/12/23 00:53:35;;;;;;;;;;;11.80;99.90;;;;;;5075362;28;19922;-87
2020/12/23 00:56:00;;;;;;;;;;;11.80;99.90;;;;;;5073792;28;20003;-86
2020/12/23 00:58:26;;;;;;;;;;;11.70;99.90;;;;;;5066845;28;19908;-87
2020/12/23 01:00:51;;;;;;;;;;;11.70;99.90;;;;;;5067478;28;19915;-87
2020/12/23 01:03:16;;;;;;;;;;;11.70;99.90;;;;;;5072792;28;19975;-87
2020/12/23 01:05:42;;;;;;;;;;;11.80;99.90;;;;;;5073587;28;19915;-87
2020/12/23 01:08:07;;;;;;;;;;;11.70;99.90;;;;;;5073740;28;19963;-86
2020/12/23 01:10:33;;;;;;;;;;;11.70;99.90;;;;;;5073591;28;19912;-87
2020/12/23 01:12:58;;;;;;;;;;;11.80;99.90;;;;;;5073743;28;19950;-88
2020/12/23 01:15:24;;;;;;;;;;;11.80;99.90;;;;;;5073645;28;19948;-87
2020/12/23 01:17:49;;;;;;;;;;;11.80;99.90;;;;;;5073605;28;19909;-87
2020/12/23 01:20:15;;;;;;;;;;;11.80;99.90;;;;;;5073471;28;20352;-87
2020/12/23 01:22:40;;;;;;;;;;;11.80;99.90;;;;;;5074693;28;19908;-87
2020/12/23 01:25:06;;;;;;;;;;;11.90;99.90;;;;;;5073697;28;19908;-87
2020/12/23 01:27:31;;;;;;;;;;;11.90;99.90;;;;;;5074403;28;20000;-88
2020/12/23 01:29:56;;;;;;;;;;;11.90;99.90;;;;;;5058844;28;20360;-88
2020/12/23 01:32:22;;;;;;;;;;;11.90;99.90;;;;;;5053238;28;19999;-87
2020/12/23 01:34:47;;;;;;;;;;;11.90;99.90;;;;;;5054577;28;19955;-88
2020/12/23 01:37:13;;;;;;;;;;;11.90;99.90;;;;;;5053047;28;19915;-87
2020/12/23 01:39:38;;;;;;;;;;;11.90;99.90;;;;;;5053226;28;20322;-87
2020/12/23 01:42:04;;;;;;;;;;;12.00;99.90;;;;;;5054474;28;19912;-87
2020/12/23 01:44:29;;;;;;;;;;;12.00;99.90;;;;;;5053099;28;19936;-87
2020/12/23 01:46:54;;;;;;;;;;;12.00;99.90;;;;;;5053147;28;19916;-87
2020/12/23 01:49:20;;;;;;;;;;;12.10;99.90;;;;;;5054115;28;19912;-87
2020/12/23 01:51:46;;;;;;;;;;;12.10;99.90;;;;;;5052849;28;19958;-87
2020/12/23 01:54:14;;;;;;;;;;;12.10;99.90;;;;;;5052892;28;19915;-87
2020/12/23 01:56:41;;;;;;;;;;;12.10;99.90;;;;;;5052797;28;20387;-87
2020/12/23 01:59:06;;;;;;;;;;;12.20;99.90;;;;;;5060135;28;20363;-87
2020/12/23 02:01:35;;;;;;;;;;;12.20;99.90;;;;;;5072750;28;19908;-87
2020/12/23 02:04:01;;;;;;;;;;;12.20;99.90;;;;;;5072823;28;19915;-87
2020/12/23 02:06:27;;;;;;;;;;;12.30;99.90;;;;;;5072529;28;19932;-87
2020/12/23 02:08:53;;;;;;;;;;;12.30;99.90;;;;;;5074489;28;20363;-87
2020/12/23 02:11:19;;;;;;;;;;;12.30;99.90;;;;;;5072751;28;19995;-87
2020/12/23 02:13:45;;;;;;;;;;;12.30;99.90;;;;;;5072334;28;19916;-87
2020/12/23 02:16:11;;;;;;;;;;;12.30;99.90;;;;;;5072288;28;19908;-87
2020/12/23 02:18:37;;;;;;;;;;;12.30;99.90;;;;;;5072263;28;19916;-87
2020/12/23 02:21:03;;;;;;;;;;;12.30;99.90;;;;;;5072297;28;19913;-87
2020/12/23 02:23:28;;;;;;;;;;;12.30;99.90;;;;;;5072100;28;19962;-86
2020/12/23 02:25:54;;;;;;;;;;;12.30;99.90;;;;;;5072135;28;19934;-87
2020/12/23 02:28:21;;;;;;;;;;;12.30;99.90;;;;;;5071064;28;19931;-87
2020/12/23 02:30:47;;;;;;;;;;;12.30;99.90;;;;;;5066007;28;19913;-87
2020/12/23 02:33:13;;;;;;;;;;;12.30;99.90;;;;;;5072215;28;20057;-87
2020/12/23 02:35:38;;;;;;;;;;;12.30;99.90;;;;;;5071815;28;19958;-87
2020/12/23 02:38:04;;;;;;;;;;;12.30;99.90;;;;;;5071808;28;20386;-87
2020/12/23 02:40:29;;;;;;;;;;;12.30;99.90;;;;;;5072059;28;19935;-87
2020/12/23 02:42:54;;;;;;;;;;;12.30;99.90;;;;;;5071842;28;20468;-86
2020/12/23 02:45:20;;;;;;;;;;;12.30;99.90;;;;;;5071863;28;20007;-87
2020/12/23 02:47:45;;;;;;;;;;;12.30;99.90;;;;;;5071635;28;20355;-87
2020/12/23 02:50:11;;;;;;;;;;;12.30;99.90;;;;;;5071585;28;19912;-87
2020/12/23 02:52:36;;;;;;;;;;;12.30;99.90;;;;;;5071833;28;20352;-87
2020/12/23 02:55:02;;;;;;;;;;;12.30;99.90;;;;;;5071643;28;19908;-87
2020/12/23 02:57:27;;;;;;;;;;;12.30;99.90;;;;;;5070789;28;19909;-86
2020/12/23 02:59:53;;;;;;;;;;;12.30;99.90;;;;;;5071548;28;19916;-87
2020/12/23 03:02:18;;;;;;;;;;;12.30;99.90;;;;;;5071580;28;20007;-87
2020/12/23 03:04:44;;;;;;;;;;;12.30;99.90;;;;;;5071472;28;20429;-87
2020/12/23 03:07:09;;;;;;;;;;;12.30;99.90;;;;;;5071397;28;19912;-87
2020/12/23 03:09:34;;;;;;;;;;;12.30;99.90;;;;;;5071269;28;19920;-88
2020/12/23 03:12:00;;;;;;;;;;;12.30;99.90;;;;;;5072972;28;20414;-87
2020/12/23 03:14:25;;;;;;;;;;;12.30;99.90;;;;;;5071461;28;19908;-86
2020/12/23 03:16:51;;;;;;;;;;;12.30;99.90;;;;;;5071073;28;19966;-87
2020/12/23 03:19:16;;;;;;;;;;;12.20;99.90;;;;;;5071239;28;20356;-87
2020/12/23 03:21:42;;;;;;;;;;;12.30;99.90;;;;;;5071189;28;19940;-86
2020/12/23 03:24:07;;;;;;;;;;;12.30;99.90;;;;;;5071153;28;19963;-87
2020/12/23 03:26:33;;;;;;;;;;;12.30;99.90;;;;;;5070609;28;19913;-87
2020/12/23 03:28:58;;;;;;;;;;;12.30;99.90;;;;;;5064708;28;20411;-87
2020/12/23 03:31:24;;;;;;;;;;;12.40;99.90;;;;;;5069059;28;19909;-86
2020/12/23 03:33:49;;;;;;;;;;;12.40;99.90;;;;;;5072389;28;20382;-87
2020/12/23 03:36:15;;;;;;;;;;;12.40;99.90;;;;;;5071012;28;19913;-87
2020/12/23 03:38:41;;;;;;;;;;;12.40;99.90;;;;;;5071327;28;19915;-87
2020/12/23 03:41:06;;;;;;;;;;;12.40;99.90;;;;;;5070964;28;19910;-87
2020/12/23 03:43:32;;;;;;;;;;;12.40;99.90;;;;;;5071105;28;19959;-87
2020/12/23 03:45:57;;;;;;;;;;;12.40;99.90;;;;;;5072322;28;20015;-87
2020/12/23 03:48:23;;;;;;;;;;;12.50;99.90;;;;;;5071081;28;19996;-87
2020/12/23 03:50:48;;;;;;;;;;;12.50;99.90;;;;;;5070881;28;19912;-87
2020/12/23 03:53:14;;;;;;;;;;;12.50;99.90;;;;;;5071172;28;19999;-87
2020/12/23 03:55:39;;;;;;;;;;;12.40;99.90;;;;;;5071973;28;20424;-87
2020/12/23 03:58:05;;;;;;;;;;;12.40;99.90;;;;;;5071033;28;19908;-87
2020/12/23 04:00:30;;;;;;;;;;;12.40;99.90;;;;;;5062672;28;19909;-87
2020/12/23 04:02:56;;;;;;;;;;;12.40;99.90;;;;;;5070913;28;19908;-87
2020/12/23 04:05:21;;;;;;;;;;;12.40;99.90;;;;;;5071106;28;19915;-87
2020/12/23 04:07:47;;;;;;;;;;;12.40;99.90;;;;;;5070723;28;20019;-87
2020/12/23 04:10:13;;;;;;;;;;;12.40;99.90;;;;;;5071973;28;19919;-88
2020/12/23 04:12:38;;;;;;;;;;;12.30;99.90;;;;;;5070875;28;20536;-87
2020/12/23 04:15:05;;;;;;;;;;;12.30;99.90;;;;;;5070901;28;19909;-87
2020/12/23 04:17:31;;;;;;;;;;;12.30;99.90;;;;;;5070547;28;20212;-87
2020/12/23 04:19:56;;;;;;;;;;;12.30;99.90;;;;;;5070715;28;19908;-87
2020/12/23 04:22:22;;;;;;;;;;;12.30;99.90;;;;;;5070914;28;20351;-88
2020/12/23 04:24:47;;;;;;;;;;;12.30;99.90;;;;;;5071937;28;19920;-87
2020/12/23 04:27:12;;;;;;;;;;;12.30;99.90;;;;;;5070527;28;19952;-87
2020/12/23 04:29:38;;;;;;;;;;;12.20;99.90;;;;;;5063358;28;20011;-87
2020/12/23 04:32:03;;;;;;;;;;;12.20;99.90;;;;;;5070711;28;19908;-87
2020/12/23 04:34:29;;;;;;;;;;;12.20;99.90;;;;;;5070621;28;19916;-87
2020/12/23 04:36:54;;;;;;;;;;;12.20;99.90;;;;;;5071707;28;19993;-88
2020/12/23 04:39:20;;;;;;;;;;;12.20;99.90;;;;;;5075604;28;19932;-87
2020/12/23 04:41:45;;;;;;;;;;;12.20;99.90;;;;;;5075552;28;20042;-87
2020/12/23 04:44:11;;;;;;;;;;;12.10;99.90;;;;;;5074286;28;20010;-87
2020/12/23 04:46:39;;;;;;;;;;;12.10;99.90;;;;;;5075195;28;19909;-87
2020/12/23 04:49:05;;;;;;;;;;;12.10;99.90;;;;;;5074013;28;19963;-87
2020/12/23 04:51:31;;;;;;;;;;;12.00;99.90;;;;;;5074118;28;19956;-87
2020/12/23 04:53:58;;;;;;;;;;;12.00;99.90;;;;;;5074130;28;19908;-88
2020/12/23 04:56:25;;;;;;;;;;;11.90;99.90;;;;;;5073924;28;20306;-87
2020/12/23 04:58:51;;;;;;;;;;;11.90;99.90;;;;;;5068595;28;19913;-87
2020/12/23 05:01:17;;;;;;;;;;;11.90;99.90;;;;;;5070828;28;19909;-88
2020/12/23 05:03:42;;;;;;;;;;;11.90;99.90;;;;;;5073915;28;19956;-87
2020/12/23 05:06:08;;;;;;;;;;;11.90;99.90;;;;;;5073662;28;19916;-87
2020/12/23 05:08:34;;;;;;;;;;;11.90;99.90;;;;;;5075182;28;19916;-87
2020/12/23 05:11:18;;;;;;;;;;;11.90;99.90;;;;;;5073741;28;20315;-87
2020/12/23 05:13:44;;;;;;;;;;;11.80;99.90;;;;;;5073851;28;19916;-87
2020/12/23 05:16:10;;;;;;;;;;;11.80;99.90;;;;;;5073778;28;19909;-87
2020/12/23 05:18:37;;;;;;;;;;;11.80;99.90;;;;;;5073584;28;20275;-88
2020/12/23 05:21:14;;;;;;;;;;;11.80;99.90;;;;;;5073549;28;19908;-87
2020/12/23 05:23:40;;;;;;;;;;;11.80;99.90;;;;;;5073627;28;20325;-87
2020/12/23 05:26:06;;;;;;;;;;;11.80;99.90;;;;;;5073371;28;19912;-87
2020/12/23 05:28:31;;;;;;;;;;;11.80;99.90;;;;;;5073554;28;20003;-87
2020/12/23 05:30:57;;;;;;;;;;;11.90;99.90;;;;;;5058858;28;20020;-87
2020/12/23 05:33:22;;;;;;;;;;;11.80;99.90;;;;;;5053510;28;19955;-87
2020/12/23 05:35:48;;;;;;;;;;;11.80;99.90;;;;;;5054284;28;19908;-88
2020/12/23 05:38:18;;;;;;;;;;;11.90;99.90;;;;;;5054615;28;20360;-88
2020/12/23 05:40:44;;;;;;;;;;;11.80;99.90;;;;;;5053200;28;19909;-88
2020/12/23 05:43:09;;;;;;;;;;;11.80;99.90;;;;;;5053163;28;19913;-87
2020/12/23 05:45:35;;;;;;;;;;;11.80;99.90;;;;;;5054396;28;19917;-87
2020/12/23 05:48:08;;;;;;;;;;;11.80;99.90;;;;;;5052053;28;21592;-87
2020/12/23 05:50:34;;;;;;;;;;;11.90;99.90;;;;;;5052747;28;20375;-87
2020/12/23 05:53:00;;;;;;;;;;;11.90;99.90;;;;;;5053072;28;20007;-87
2020/12/23 05:55:25;;;;;;;;;;;11.90;99.90;;;;;;5054222;28;19915;-87
2020/12/23 05:57:51;;;;;;;;;;;11.90;99.90;;;;;;5063582;28;19994;-87
2020/12/23 06:00:16;;;;;;;;;;;11.90;99.90;;;;;;5064349;28;19908;-87
2020/12/23 06:02:49;;;;;;;;;;;11.90;99.90;;;;;;5072715;28;20367;-87
2020/12/23 06:05:18;;;;;;;;;;;11.90;99.90;;;;;;5072835;28;19908;-87
2020/12/23 06:07:46;;;;;;;;;;;11.90;99.90;;;;;;5072410;28;19917;-87
2020/12/23 06:10:13;;;;;;;;;;;11.90;99.90;;;;;;5073616;28;19971;-87
2020/12/23 06:12:46;;;;;;;;;;;11.90;99.90;;;;;;5073938;28;19909;-87
2020/12/23 06:15:15;;;;;;;;;;;11.90;99.90;;;;;;5072661;28;19909;-87
2020/12/23 06:17:44;;;;;;;;;;;11.90;99.90;;;;;;5072417;28;20363;-87
2020/12/23 06:20:10;;;;;;;;;;;11.90;99.90;;;;;;5072561;28;20322;-87
2020/12/23 06:22:36;;;;;;;;;;;11.80;99.90;;;;;;5072446;28;20395;-87
2020/12/23 06:25:02;;;;;;;;;;;11.80;99.90;;;;;;5072326;28;19909;-87
2020/12/23 06:27:31;;;;;;;;;;;11.80;99.90;;;;;;5072299;28;20351;-87
2020/12/23 06:29:57;;;;;;;;;;;11.80;99.90;;;;;;5063577;28;20364;-87
2020/12/23 06:32:23;;;;;;;;;;;11.80;99.90;;;;;;5072321;28;19908;-88
2020/12/23 06:34:56;;;;;;;;;;;11.80;99.90;;;;;;5073489;28;20310;-87
2020/12/23 06:37:32;;;;;;;;;;;11.80;99.90;;;;;;5073290;28;19908;-87
2020/12/23 06:39:57;;;;;;;;;;;11.90;99.90;;;;;;5071893;28;20295;-87
2020/12/23 06:42:24;;;;;;;;;;;11.90;99.90;;;;;;5072324;28;19908;-88
2020/12/23 06:44:56;;;;;;;;;;;11.80;99.90;;;;;;5073613;28;19920;-87
2020/12/23 06:47:22;;;;;;;;;;;11.90;99.90;;;;;;5071750;28;20268;-87
2020/12/23 06:49:49;;;;;;;;;;;11.90;99.90;;;;;;5071635;28;19951;-88
2020/12/23 06:52:20;;;;;;;;;;;11.90;99.90;;;;;;5071739;28;19915;-87
2020/12/23 06:54:49;;;;;;;;;;;11.90;99.90;;;;;;5071710;28;19912;-87
2020/12/23 06:57:34;;;;;;;;;;;11.90;99.90;;;;;;5072684;28;19955;-87
2020/12/23 07:00:00;;;;;;;;;;;11.90;99.90;;;;;;5062591;28;19938;-87
2020/12/23 07:02:26;;;;;;;;;;;11.90;99.90;;;;;;5071914;28;19909;-87
2020/12/23 07:04:53;;;;;;;;;;;11.90;99.90;;;;;;5071626;28;19911;-87
2020/12/23 07:07:32;;;;;;;;;;;12.00;99.90;;;;;;5071414;28;20332;-87
2020/12/23 07:10:04;;;;;;;;;;;12.00;99.90;;;;;;5071309;28;19912;-87
2020/12/23 07:12:31;;;;;;;;;;;12.00;99.90;;;;;;5071497;28;19919;-87
2020/12/23 07:15:10;;;;;;;;;;;12.00;99.90;;;;;;5072806;28;20276;-87
2020/12/23 07:17:36;;;;;;;;;;;11.90;99.90;;;;;;5072417;28;20267;-87
2020/12/23 07:20:03;;;;;;;;;;;11.90;99.90;;;;;;5072571;28;19939;-87
2020/12/23 07:22:30;;;;;;;;;;;11.90;99.90;;;;;;5071681;28;20053;-87
2020/12/23 07:24:57;;;;;;;;;;;11.90;99.90;;;;;;5071364;28;19909;-87
2020/12/23 07:27:24;;;;;;;;;;;11.90;99.90;;;;;;5065327;28;19931;-87
2020/12/23 07:29:53;;;;;;;;;;;11.90;99.90;;;;;;5061422;28;19917;-87
2020/12/23 07:32:21;;;;;;;;;;;11.90;99.90;;;;;;5064842;28;19912;-87
2020/12/23 07:34:48;;;;;;;;;;;11.90;99.90;;;;;;5071238;28;19913;-87
2020/12/23 07:37:14;;;;;;;;;;;11.80;99.90;;;;;;5072462;28;19940;-87
2020/12/23 07:39:39;;;;;;;;;;;11.90;99.90;;;;;;5072565;28;19912;-87
2020/12/23 07:42:05;;;;;;;;;;;11.80;99.90;;;;;;5077184;28;19913;-87
2020/12/23 07:44:31;;;;;;;;;;;11.80;99.90;;;;;;5071200;28;19924;-87
2020/12/23 07:47:06;;;;;;;;;;;11.80;99.90;;;;;;5070882;28;19912;-87
2020/12/23 07:49:31;;;;;;;;;;;11.80;99.90;;;;;;5060603;28;19917;-87
2020/12/23 07:51:57;;;;;;;;;;;11.80;99.90;;;;;;5051103;28;19909;-87
2020/12/23 07:54:23;;;;;;;;;;;11.80;99.90;;;;;;5052290;28;19938;-87
2020/12/23 07:56:48;;;;;;;;;;;11.80;99.90;;;;;;5053309;28;19913;-87
2020/12/23 07:59:22;;;;;;;;;;;11.80;99.90;;;;;;5070839;28;20295;-87
2020/12/23 08:01:48;;;;;;;;;;;11.80;99.90;;;;;;5050952;28;19990;-87
2020/12/23 08:04:13;;;;;;;;;;;11.80;99.90;;;;;;5052203;28;19916;-87
2020/12/23 08:06:39;;;;;;;;;;;11.80;99.90;;;;;;5050685;28;19912;-87
2020/12/23 08:09:11;;;;;;;;;;;11.80;99.90;;;;;;5050830;28;19915;-87
2020/12/23 08:11:37;;;;;;;;;;;11.80;99.90;;;;;;5051775;28;19995;-88
2020/12/23 08:14:02;;;;;;;;;;;11.80;99.90;;;;;;5054936;28;19908;-87
2020/12/23 08:16:28;;;;;;;;;;;11.80;99.90;;;;;;5054621;28;19917;-87
2020/12/23 08:18:54;;;;;;;;;;;11.90;99.90;;;;;;5056034;28;19955;-87
2020/12/23 08:21:19;;;;;;;;;;;11.90;99.90;;;;;;5055881;28;19916;-87
2020/12/23 08:23:46;;;;;;;;;;;11.90;99.90;;;;;;5054692;28;20324;-87
2020/12/23 08:26:12;;;;;;;;;;;11.90;99.90;;;;;;5054545;28;19913;-87
2020/12/23 08:28:41;;;;;;;;;;;12.00;99.90;;;;;;5062759;28;20265;-88
2020/12/23 08:31:11;;;;;;;;;;;12.00;99.90;;;;;;5069951;28;19999;-87
2020/12/23 08:33:37;;;;;;;;;;;12.00;99.90;;;;;;5076012;28;19908;-87
2020/12/23 08:36:04;;;;;;;;;;;12.00;99.90;;;;;;5074533;28;19909;-87
2020/12/23 08:38:29;;;;;;;;;;;12.10;99.90;;;;;;5074688;28;19916;-87
2020/12/23 08:40:56;;;;;;;;;;;12.10;99.90;;;;;;5091585;28;19908;-87
2020/12/23 08:43:23;;;;;;;;;;;12.10;99.90;;;;;;5075929;28;19915;-87
2020/12/23 08:45:49;;;;;;;;;;;12.20;99.90;;;;;;5074068;28;19961;-87
2020/12/23 08:48:18;;;;;;;;;;;12.20;99.90;;;;;;5073624;28;20011;-88
2020/12/23 08:50:51;;;;;;;;;;;12.30;99.90;;;;;;5075735;28;19948;-87
2020/12/23 08:53:16;;;;;;;;;;;12.40;99.90;;;;;;5074148;28;19908;-87
2020/12/23 08:55:42;;;;;;;;;;;12.40;99.90;;;;;;5090716;28;19916;-87
2020/12/23 08:58:08;;;;;;;;;;;12.40;99.90;;;;;;5067268;28;19915;-88
2020/12/23 09:00:33;;;;;;;;;;;12.40;99.90;;;;;;5074007;28;20387;-86
2020/12/23 09:02:59;;;;;;;;;;;12.50;99.90;;;;;;5074131;28;19909;-87
2020/12/23 09:05:30;;;;;;;;;;;12.50;99.90;;;;;;5073894;28;19912;-86
2020/12/23 09:08:09;;;;;;;;;;;12.60;99.90;;;;;;5074896;28;19909;-87
2020/12/23 09:10:38;;;;;;;;;;;12.60;99.90;;;;;;5073768;28;19912;-86
2020/12/23 09:13:03;;;;;;;;;;;12.60;99.90;;;;;;5073773;28;19920;-86
2020/12/23 09:15:32;;;;;;;;;;;12.70;99.90;;;;;;5073587;28;19912;-87
2020/12/23 09:18:11;;;;;;;;;;;12.70;99.90;;;;;;5073613;28;19916;-86
2020/12/23 09:20:37;;;;;;;;;;;12.70;99.90;;;;;;5073549;28;19908;-86
2020/12/23 09:23:03;;;;;;;;;;;12.80;99.90;;;;;;5072956;28;19912;-86
2020/12/23 09:25:30;;;;;;;;;;;12.80;99.90;;;;;;5073373;28;19909;-87
2020/12/23 09:28:03;;;;;;;;;;;12.90;99.90;;;;;;5073115;28;20433;-87
2020/12/23 09:30:32;;;;;;;;;;;12.90;99.90;;;;;;5064880;28;20003;-86
2020/12/23 09:32:57;;;;;;;;;;;13.00;99.90;;;;;;5073342;28;19961;-86
2020/12/23 09:35:24;;;;;;;;;;;13.00;99.90;;;;;;5073359;28;19909;-86
2020/12/23 09:38:05;;;;;;;;;;;13.10;99.90;;;;;;5074424;28;19913;-86
2020/12/23 09:40:30;;;;;;;;;;;13.10;99.90;;;;;;5073038;28;19995;-87
2020/12/23 09:42:56;;;;;;;;;;;13.10;99.90;;;;;;5073310;28;20350;-86
2020/12/23 09:45:21;;;;;;;;;;;13.10;99.90;;;;;;5073112;28;19917;-86
2020/12/23 09:47:47;;;;;;;;;;;13.10;99.90;;;;;;5072987;28;19931;-86
2020/12/23 09:50:13;;;;;;;;;;;13.10;99.90;;;;;;5073226;28;19962;-86
2020/12/23 09:52:38;;;;;;;;;;;13.10;99.90;;;;;;5073222;28;19909;-87
2020/12/23 09:55:07;;;;;;;;;;;13.10;99.90;;;;;;5072809;28;20028;-86
2020/12/23 09:57:36;;;;;;;;;;;13.10;99.90;;;;;;5073899;28;19909;-86
2020/12/23 10:00:03;;;;;;;;;;;13.10;99.90;;;;;;5064552;28;20370;-87
2020/12/23 10:02:28;;;;;;;;;;;13.10;99.90;;;;;;5073023;28;20022;-86
2020/12/23 10:04:54;;;;;;;;;;;13.10;99.90;;;;;;5073037;28;19963;-86
2020/12/23 10:07:21;;;;;;;;;;;13.20;99.90;;;;;;5072606;28;19958;-87
2020/12/23 10:09:46;;;;;;;;;;;13.20;99.90;;;;;;5073607;28;19916;-87
2020/12/23 10:12:12;;;;;;;;;;;13.30;99.90;;;;;;5073910;28;19995;-86
2020/12/23 10:14:37;;;;;;;;;;;13.40;99.90;;;;;;5072524;28;19995;-87
2020/12/23 10:17:03;;;;;;;;;;;13.40;99.90;;;;;;5072215;28;19909;-86
2020/12/23 10:19:28;;;;;;;;;;;13.50;99.90;;;;;;5074638;28;20363;-88
2020/12/23 10:21:54;;;;;;;;;;;13.50;99.90;;;;;;5073638;28;19916;-87
2020/12/23 10:24:19;;;;;;;;;;;13.60;99.90;;;;;;5072200;28;19919;-88
2020/12/23 10:26:49;;;;;;;;;;;13.60;99.90;;;;;;5073461;28;19909;-87
2020/12/23 10:29:15;;;;;;;;;;;13.50;99.90;;;;;;5063637;28;19915;-88
2020/12/23 10:31:40;;;;;;;;;;;13.50;99.90;;;;;;5051998;28;19913;-87
2020/12/23 10:34:06;;;;;;;;;;;13.60;99.90;;;;;;5052404;28;19916;-87
2020/12/23 10:36:31;;;;;;;;;;;13.60;99.90;;;;;;5051898;28;20437;-88
2020/12/23 10:38:57;;;;;;;;;;;13.60;99.90;;;;;;5052155;28;20008;-87
2020/12/23 10:41:22;;;;;;;;;;;13.70;99.90;;;;;;5052001;28;20291;-87
2020/12/23 10:43:48;;;;;;;;;;;13.70;99.90;;;;;;5052149;28;19947;-88
2020/12/23 10:46:14;;;;;;;;;;;13.80;99.90;;;;;;5053332;28;19909;-88
2020/12/23 10:48:39;;;;;;;;;;;13.90;99.90;;;;;;5052131;28;19931;-87
2020/12/23 10:51:05;;;;;;;;;;;14.00;99.90;;;;;;5051900;28;20245;-87
2020/12/23 10:53:30;;;;;;;;;;;14.10;99.90;;;;;;5052007;28;20390;-87
2020/12/23 10:55:56;;;;;;;;;;;14.20;99.90;;;;;;5051744;28;19958;-87
2020/12/23 10:58:21;;;;;;;;;;;14.30;99.90;;;;;;5061094;28;19916;-88
2020/12/23 11:00:47;;;;;;;;;;;14.30;99.90;;;;;;5058709;28;19916;-87
2020/12/23 11:03:12;;;;;;;;;;;14.40;99.90;;;;;;5052978;28;20038;-88
2020/12/23 11:05:38;;;;;;;;;;;14.40;99.90;;;;;;5051782;28;20283;-88
2020/12/23 11:08:03;;;;;;;;;;;14.50;99.90;;;;;;5051588;28;19908;-87
2020/12/23 11:10:29;;;;;;;;;;;14.50;99.90;;;;;;5052932;28;19920;-87
2020/12/23 11:12:54;;;;;;;;;;;14.60;99.90;;;;;;5051662;28;19962;-89
2020/12/23 11:15:20;;;;;;;;;;;14.70;99.90;;;;;;5052874;28;19913;-88
2020/12/23 11:17:45;;;;;;;;;;;14.70;99.90;;;;;;5052736;28;19951;-88
2020/12/23 11:20:11;;;;;;;;;;;14.70;99.90;;;;;;5051480;28;19909;-87
2020/12/23 11:22:36;;;;;;;;;;;14.70;99.90;;;;;;5051574;28;19909;-87
2020/12/23 11:25:03;;;;;;;;;;;14.70;99.90;;;;;;5052798;28;19916;-88
2020/12/23 11:27:28;;;;;;;;;;;14.70;99.90;;;;;;5053301;28;19915;-87
2020/12/23 11:29:54;;;;;;;;;;;14.60;99.90;;;;;;5065542;28;20003;-87
2020/12/23 11:32:19;;;;;;;;;;;14.60;99.90;;;;;;5051408;28;19920;-88
2020/12/23 11:34:45;;;;;;;;;;;14.60;99.90;;;;;;5051424;28;19916;-86
2020/12/23 11:37:10;;;;;;;;;;;14.50;99.90;;;;;;5051067;28;19924;-86
2020/12/23 11:39:36;;;;;;;;;;;14.60;99.90;;;;;;5051207;28;19909;-86
2020/12/23 11:42:01;;;;;;;;;;;14.60;99.90;;;;;;5051334;28;20352;-86
2020/12/23 11:44:27;;;;;;;;;;;14.60;99.90;;;;;;5051183;28;19916;-86
2020/12/23 11:46:53;;;;;;;;;;;14.60;99.90;;;;;;5053544;28;19909;-86
2020/12/23 11:49:18;;;;;;;;;;;14.70;99.90;;;;;;5056542;28;19950;-86
2020/12/23 11:51:45;;;;;;;;;;;14.70;99.90;;;;;;5056439;28;19909;-86
2020/12/23 11:54:11;;;;;;;;;;;14.70;99.90;;;;;;5055407;28;19915;-86
2020/12/23 11:56:36;;;;;;;;;;;14.70;99.90;;;;;;5055094;28;20288;-86
2020/12/23 11:59:02;;;;;;;;;;;14.70;99.90;;;;;;5063413;28;19915;-85
2020/12/23 12:01:27;;;;;;;;;;;14.60;99.90;;;;;;5073533;28;20390;-86
2020/12/23 12:03:52;;;;;;;;;;;14.60;99.90;;;;;;5075102;28;19909;-86
2020/12/23 12:06:22;;;;;;;;;;;14.60;99.90;;;;;;5074970;28;19944;-85
2020/12/23 12:08:48;;;;;;;;;;;14.50;99.90;;;;;;5075041;28;19916;-85
2020/12/23 12:11:14;;;;;;;;;;;14.50;99.90;;;;;;5074878;28;19913;-87
2020/12/23 12:13:40;;;;;;;;;;;14.50;99.90;;;;;;5076213;28;19912;-85
2020/12/23 12:16:05;;;;;;;;;;;14.50;99.90;;;;;;5074746;28;19924;-86
2020/12/23 12:18:31;;;;;;;;;;;14.50;99.90;;;;;;5074931;28;20390;-88
2020/12/23 12:20:56;;;;;;;;;;;14.60;99.90;;;;;;5074714;28;20363;-88
2020/12/23 12:23:22;;;;;;;;;;;14.60;99.90;;;;;;5074810;28;19908;-88
2020/12/23 12:25:47;;;;;;;;;;;14.60;99.90;;;;;;5074508;28;19908;-88
2020/12/23 12:28:13;;;;;;;;;;;14.60;99.90;;;;;;5066224;28;19908;-88
2020/12/23 12:30:38;;;;;;;;;;;14.60;99.90;;;;;;5067359;28;19919;-86
2020/12/23 12:33:04;;;;;;;;;;;14.60;99.90;;;;;;5075822;28;20314;-88
2020/12/23 12:35:30;;;;;;;;;;;14.70;99.90;;;;;;5075737;28;20375;-85
2020/12/23 12:37:55;;;;;;;;;;;14.70;99.90;;;;;;5075593;28;19908;-86
2020/12/23 12:40:21;;;;;;;;;;;14.70;99.90;;;;;;5075579;28;19913;-85
2020/12/23 12:42:46;;;;;;;;;;;14.70;99.90;;;;;;5074392;28;19909;-86
2020/12/23 12:45:12;;;;;;;;;;;14.70;99.90;;;;;;5075521;28;19923;-86
2020/12/23 12:47:37;;;;;;;;;;;14.80;99.90;;;;;;5074089;28;19913;-86
2020/12/23 12:50:04;;;;;;;;;;;14.80;99.90;;;;;;5073563;28;20014;-86
2020/12/23 12:52:29;;;;;;;;;;;14.80;99.90;;;;;;5074350;28;19921;-87
2020/12/23 12:54:55;;;;;;;;;;;14.80;99.90;;;;;;5074314;28;20294;-84
2020/12/23 12:57:20;;;;;;;;;;;14.90;99.90;;;;;;5073929;28;19954;-87
2020/12/23 12:59:45;;;;;;;;;;;14.90;99.90;;;;;;5064528;28;19909;-86
2020/12/23 13:02:11;;;;;;;;;;;14.90;99.90;;;;;;5074307;28;20381;-86
2020/12/23 13:04:37;;;;;;;;;;;14.80;99.90;;;;;;5074428;28;19913;-86
2020/12/23 13:07:03;;;;;;;;;;;14.80;99.90;;;;;;5073898;28;19915;-86
2020/12/23 13:09:28;;;;;;;;;;;14.80;99.90;;;;;;5074184;28;19919;-88
2020/12/23 13:11:58;;;;;;;;;;;14.80;99.90;;;;;;5073892;28;19909;-87
2020/12/23 13:14:23;;;;;;;;;;;14.70;99.90;;;;;;5074975;28;19920;-86
2020/12/23 13:16:48;;;;;;;;;;;14.70;99.90;;;;;;5073595;28;20021;-87
2020/12/23 13:19:14;;;;;;;;;;;14.60;99.90;;;;;;5073679;28;19951;-88
2020/12/23 13:21:39;;;;;;;;;;;14.60;99.90;;;;;;5073426;28;20363;-88
2020/12/23 13:24:05;;;;;;;;;;;14.50;99.90;;;;;;5073514;28;19908;-88
2020/12/23 13:26:30;;;;;;;;;;;14.50;99.90;;;;;;5073898;28;19916;-86
2020/12/23 13:28:56;;;;;;;;;;;14.50;99.90;;;;;;5073590;28;19908;-86
2020/12/23 13:31:23;;;;;;;;;;;14.40;99.90;;;;;;5055923;28;19913;-86
2020/12/23 13:33:48;;;;;;;;;;;14.40;99.90;;;;;;5053525;28;19908;-86
2020/12/23 13:36:14;;;;;;;;;;;14.40;99.90;;;;;;5053332;28;19909;-86
2020/12/23 13:38:40;;;;;;;;;;;14.30;99.90;;;;;;5054528;28;19913;-86
2020/12/23 13:41:08;;;;;;;;;;;14.30;99.90;;;;;;5053279;28;19909;-86
2020/12/23 13:43:34;;;;;;;;;;;14.20;99.90;;;;;;5054458;28;20295;-87
2020/12/23 13:45:59;;;;;;;;;;;14.20;99.90;;;;;;5053219;28;19939;-87
2020/12/23 13:48:25;;;;;;;;;;;14.10;99.90;;;;;;5053099;28;19916;-86
2020/12/23 13:50:50;;;;;;;;;;;14.00;99.90;;;;;;5052914;28;19913;-86
2020/12/23 13:53:16;;;;;;;;;;;14.00;99.90;;;;;;5054329;28;19912;-87
2020/12/23 13:55:41;;;;;;;;;;;13.90;99.90;;;;;;5052855;28;19909;-87
2020/12/23 13:58:07;;;;;;;;;;;13.80;99.90;;;;;;5060314;28;19940;-86
2020/12/23 14:00:33;;;;;;;;;;;13.60;99.90;;;;;;5061894;28;19909;-86
2020/12/23 14:02:58;;;;;;;;;;;13.40;99.90;;;;;;5052852;28;19973;-86
2020/12/23 14:05:24;;;;;;;;;;;13.30;99.90;;;;;;5052808;28;19916;-86
2020/12/23 14:07:50;;;;;;;;;;;13.10;99.90;;;;;;5052590;28;19936;-86
2020/12/23 14:10:16;;;;;;;;;;;13.00;99.90;;;;;;5053542;28;19919;-86